Colt, AR (72326)

6:08 PM CST on February 11, 2016 (GMT -0600)
Hillcrest | | Change Station
CLOSE
Current Station
Personal Weather Station
Location: Marianna, AR
Elevation: 220 ft
Nearby Weather Stations

Elev 220 ft 34.78 °N, 90.76 °W | Updated 9 seconds ago

Clear
Clear
45.9 °F
Feels Like 46 °F
N
2.5
Wind Variable Wind from South
Gusts 2.5 mph

Today
High -- | Low -- °F
--% Chance of Precip.
Yesterday
High -- | Low -- °F
Precip. -- in
Pressure 30.21 in
Visibility 10.0 miles
Clouds Clear
Windchill 46 °F
Dew Point 25 °F
Humidity 44%
Rainfall 0.00 in
Snow Depth Not available.
6:53 AM 5:41 PM
Waxing Crescent, 15% visible
METAR KAWM 112353Z AUTO 05008KT 10SM CLR 07/M03 A3021 RMK AO2 SLP230 T00671033 10106 20067 53014
Pressure 30.21 in
Visibility 10.0 miles
Clouds Clear
Windchill 46 °F
Dew Point 25 °F
Humidity 44%
Rainfall 0.00 in
Snow Depth Not available.
6:53 AM 5:41 PM
Waxing Crescent, 15% visible
METAR KAWM 112353Z AUTO 05008KT 10SM CLR 07/M03 A3021 RMK AO2 SLP230 T00671033 10106 20067 53014

10-Day Weather Forecast

Almanac

Astronomy

Feb. 11, 2016 Rise Set
Actual Time
Civil Twilight
Nautical Twilight
Astronomical Twilight
Moon
Length of Visible Light
Length of Day
Tomorrow will be .
, % of the Moon is Illuminated

Today's Extremes

State Highs State Lows

Community

WunderPhotos

Upload Photos

1,892,186 photos uploaded!

WunderBlog® & News

Nearby

Air Quality

  Air Quality AQ Index Pollutant
Not available.

Snow Depth

Station Depth Elevation

Earthquake Activity

City Distance Mag. Time & Date
Minimum magnitude displayed is 2.5.

Coastal Water Temperatures

Place Temperature

Stations

Nearby Weather Stations

Station Location Temp. Windchill Dew Point Humidity Wind Precip. Elev Updated Type
                   

Watches & Warnings

There are currently no watches in effect.